sensor_id;sensor_type;location;lat;lon;timestamp;P1;durP1;ratioP1;P2;durP2;ratioP2
30235;SDS011;17048;53.092;8.746;2023-07-31T00:01:19;6.15;;;2.28;;
30235;SDS011;17048;53.092;8.746;2023-07-31T00:03:46;6.65;;;1.90;;
30235;SDS011;17048;53.092;8.746;2023-07-31T00:06:13;9.45;;;2.13;;
30235;SDS011;17048;53.092;8.746;2023-07-31T00:08:41;6.22;;;2.10;;
30235;SDS011;17048;53.092;8.746;2023-07-31T00:11:09;6.72;;;2.20;;
30235;SDS011;17048;53.092;8.746;2023-07-31T00:13:36;6.07;;;2.30;;
30235;SDS011;17048;53.092;8.746;2023-07-31T00:16:03;9.98;;;2.17;;
30235;SDS011;17048;53.092;8.746;2023-07-31T00:18:33;5.95;;;1.92;;
30235;SDS011;17048;53.092;8.746;2023-07-31T00:21:18;11.55;;;2.47;;
30235;SDS011;17048;53.092;8.746;2023-07-31T00:23:45;3.65;;;1.60;;
30235;SDS011;17048;53.092;8.746;2023-07-31T00:28:49;7.00;;;2.45;;
30235;SDS011;17048;53.092;8.746;2023-07-31T00:31:16;7.40;;;2.20;;
30235;SDS011;17048;53.092;8.746;2023-07-31T00:33:44;5.35;;;2.25;;
30235;SDS011;17048;53.092;8.746;2023-07-31T00:36:15;4.80;;;1.95;;
30235;SDS011;17048;53.092;8.746;2023-07-31T00:38:44;7.25;;;1.88;;
30235;SDS011;17048;53.092;8.746;2023-07-31T00:41:11;5.47;;;1.73;;
30235;SDS011;17048;53.092;8.746;2023-07-31T00:43:38;6.53;;;1.67;;
30235;SDS011;17048;53.092;8.746;2023-07-31T00:46:08;11.73;;;2.30;;
30235;SDS011;17048;53.092;8.746;2023-07-31T00:48:36;3.95;;;1.73;;
30235;SDS011;17048;53.092;8.746;2023-07-31T00:51:04;4.05;;;1.92;;
30235;SDS011;17048;53.092;8.746;2023-07-31T00:53:31;7.93;;;2.58;;
30235;SDS011;17048;53.092;8.746;2023-07-31T00:55:58;6.90;;;1.70;;
30235;SDS011;17048;53.092;8.746;2023-07-31T00:58:25;7.68;;;2.40;;
30235;SDS011;17048;53.092;8.746;2023-07-31T01:00:52;3.10;;;1.65;;
30235;SDS011;17048;53.092;8.746;2023-07-31T01:03:20;12.40;;;2.40;;
30235;SDS011;17048;53.092;8.746;2023-07-31T01:05:59;4.95;;;2.17;;
30235;SDS011;17048;53.092;8.746;2023-07-31T01:11:07;5.85;;;1.88;;
30235;SDS011;17048;53.092;8.746;2023-07-31T01:13:36;5.32;;;1.95;;
30235;SDS011;17048;53.092;8.746;2023-07-31T01:16:03;5.55;;;2.50;;
30235;SDS011;17048;53.092;8.746;2023-07-31T01:18:30;3.08;;;1.58;;
30235;SDS011;17048;53.092;8.746;2023-07-31T01:28:40;6.82;;;2.05;;
30235;SDS011;17048;53.092;8.746;2023-07-31T01:31:21;3.90;;;2.08;;
30235;SDS011;17048;53.092;8.746;2023-07-31T01:33:50;5.10;;;1.92;;
30235;SDS011;17048;53.092;8.746;2023-07-31T01:36:25;3.58;;;2.00;;
30235;SDS011;17048;53.092;8.746;2023-07-31T01:38:54;3.83;;;2.05;;
30235;SDS011;17048;53.092;8.746;2023-07-31T01:41:24;4.70;;;1.50;;
30235;SDS011;17048;53.092;8.746;2023-07-31T01:43:51;3.92;;;1.80;;
30235;SDS011;17048;53.092;8.746;2023-07-31T01:46:21;5.55;;;1.83;;
30235;SDS011;17048;53.092;8.746;2023-07-31T01:48:48;4.15;;;2.10;;
30235;SDS011;17048;53.092;8.746;2023-07-31T01:51:16;6.85;;;2.10;;
30235;SDS011;17048;53.092;8.746;2023-07-31T01:53:51;6.15;;;2.22;;
30235;SDS011;17048;53.092;8.746;2023-07-31T01:56:26;6.28;;;2.13;;
30235;SDS011;17048;53.092;8.746;2023-07-31T01:58:53;2.50;;;1.67;;
30235;SDS011;17048;53.092;8.746;2023-07-31T02:01:20;4.40;;;2.42;;
30235;SDS011;17048;53.092;8.746;2023-07-31T02:03:54;3.85;;;2.28;;
30235;SDS011;17048;53.092;8.746;2023-07-31T02:06:21;5.07;;;2.20;;
30235;SDS011;17048;53.092;8.746;2023-07-31T02:08:49;4.57;;;1.83;;
30235;SDS011;17048;53.092;8.746;2023-07-31T02:11:16;3.08;;;2.30;;
30235;SDS011;17048;53.092;8.746;2023-07-31T02:13:45;4.72;;;2.33;;
30235;SDS011;17048;53.092;8.746;2023-07-31T02:16:12;4.97;;;2.08;;
30235;SDS011;17048;53.092;8.746;2023-07-31T02:18:39;4.97;;;2.53;;
30235;SDS011;17048;53.092;8.746;2023-07-31T02:21:09;3.22;;;1.95;;
30235;SDS011;17048;53.092;8.746;2023-07-31T02:23:36;5.20;;;2.20;;
30235;SDS011;17048;53.092;8.746;2023-07-31T02:26:03;9.50;;;3.05;;
30235;SDS011;17048;53.092;8.746;2023-07-31T02:28:32;4.38;;;2.03;;
30235;SDS011;17048;53.092;8.746;2023-07-31T02:30:59;4.47;;;2.33;;
30235;SDS011;17048;53.092;8.746;2023-07-31T02:33:26;3.65;;;2.10;;
30235;SDS011;17048;53.092;8.746;2023-07-31T02:35:55;3.58;;;2.20;;
30235;SDS011;17048;53.092;8.746;2023-07-31T02:38:22;2.00;;;1.75;;
30235;SDS011;17048;53.092;8.746;2023-07-31T02:40:49;3.25;;;2.25;;
30235;SDS011;17048;53.092;8.746;2023-07-31T02:43:18;5.85;;;2.30;;
30235;SDS011;17048;53.092;8.746;2023-07-31T02:45:52;4.45;;;3.00;;
30235;SDS011;17048;53.092;8.746;2023-07-31T02:48:19;6.00;;;3.55;;
30235;SDS011;17048;53.092;8.746;2023-07-31T02:50:46;7.82;;;3.42;;
30235;SDS011;17048;53.092;8.746;2023-07-31T02:53:13;5.97;;;3.15;;
30235;SDS011;17048;53.092;8.746;2023-07-31T02:55:40;5.40;;;2.85;;
30235;SDS011;17048;53.092;8.746;2023-07-31T02:58:10;5.70;;;2.95;;
30235;SDS011;17048;53.092;8.746;2023-07-31T03:07:16;3.55;;;2.58;;
30235;SDS011;17048;53.092;8.746;2023-07-31T03:09:43;6.55;;;3.53;;
30235;SDS011;17048;53.092;8.746;2023-07-31T03:12:10;4.15;;;3.10;;
30235;SDS011;17048;53.092;8.746;2023-07-31T03:14:37;10.00;;;2.90;;
30235;SDS011;17048;53.092;8.746;2023-07-31T03:17:04;5.93;;;3.45;;
30235;SDS011;17048;53.092;8.746;2023-07-31T03:19:44;6.80;;;4.22;;
30235;SDS011;17048;53.092;8.746;2023-07-31T03:22:25;4.78;;;2.97;;
30235;SDS011;17048;53.092;8.746;2023-07-31T03:25:02;7.10;;;3.30;;
30235;SDS011;17048;53.092;8.746;2023-07-31T03:27:30;6.97;;;3.55;;
30235;SDS011;17048;53.092;8.746;2023-07-31T03:30:05;5.50;;;3.42;;
30235;SDS011;17048;53.092;8.746;2023-07-31T03:32:50;3.88;;;3.38;;
30235;SDS011;17048;53.092;8.746;2023-07-31T03:35:34;6.68;;;3.20;;
30235;SDS011;17048;53.092;8.746;2023-07-31T03:38:15;6.47;;;3.28;;
30235;SDS011;17048;53.092;8.746;2023-07-31T03:51:17;5.15;;;3.03;;
30235;SDS011;17048;53.092;8.746;2023-07-31T03:53:58;6.40;;;3.05;;
30235;SDS011;17048;53.092;8.746;2023-07-31T03:56:40;6.38;;;3.10;;
30235;SDS011;17048;53.092;8.746;2023-07-31T04:02:51;6.25;;;3.38;;
30235;SDS011;17048;53.092;8.746;2023-07-31T04:05:37;5.22;;;2.63;;
30235;SDS011;17048;53.092;8.746;2023-07-31T04:08:18;5.15;;;3.13;;
30235;SDS011;17048;53.092;8.746;2023-07-31T04:11:05;5.53;;;3.38;;
30235;SDS011;17048;53.092;8.746;2023-07-31T04:13:47;5.90;;;3.47;;
30235;SDS011;17048;53.092;8.746;2023-07-31T04:16:27;5.32;;;3.28;;
30235;SDS011;17048;53.092;8.746;2023-07-31T04:19:11;4.88;;;3.28;;
30235;SDS011;17048;53.092;8.746;2023-07-31T04:21:43;6.78;;;3.90;;
30235;SDS011;17048;53.092;8.746;2023-07-31T04:24:10;7.13;;;4.10;;
30235;SDS011;17048;53.092;8.746;2023-07-31T04:26:39;8.30;;;3.95;;
30235;SDS011;17048;53.092;8.746;2023-07-31T04:29:08;4.55;;;3.70;;
30235;SDS011;17048;53.092;8.746;2023-07-31T04:31:38;6.78;;;3.40;;
30235;SDS011;17048;53.092;8.746;2023-07-31T04:34:08;4.57;;;3.63;;
30235;SDS011;17048;53.092;8.746;2023-07-31T04:36:48;4.30;;;3.22;;
30235;SDS011;17048;53.092;8.746;2023-07-31T04:39:29;4.38;;;3.40;;
30235;SDS011;17048;53.092;8.746;2023-07-31T04:42:10;4.85;;;3.13;;
30235;SDS011;17048;53.092;8.746;2023-07-31T04:44:58;3.15;;;2.85;;
30235;SDS011;17048;53.092;8.746;2023-07-31T04:47:41;4.80;;;3.55;;
30235;SDS011;17048;53.092;8.746;2023-07-31T04:50:22;7.22;;;2.90;;
30235;SDS011;17048;53.092;8.746;2023-07-31T04:56:16;4.43;;;2.80;;
30235;SDS011;17048;53.092;8.746;2023-07-31T04:59:06;4.50;;;2.90;;
30235;SDS011;17048;53.092;8.746;2023-07-31T05:01:49;5.28;;;2.55;;
30235;SDS011;17048;53.092;8.746;2023-07-31T05:04:34;3.97;;;2.70;;
30235;SDS011;17048;53.092;8.746;2023-07-31T05:07:28;4.30;;;2.55;;
30235;SDS011;17048;53.092;8.746;2023-07-31T05:10:08;4.43;;;2.15;;
30235;SDS011;17048;53.092;8.746;2023-07-31T05:12:49;2.70;;;2.30;;
30235;SDS011;17048;53.092;8.746;2023-07-31T05:15:30;2.63;;;2.00;;
30235;SDS011;17048;53.092;8.746;2023-07-31T05:24:10;2.53;;;1.90;;
30235;SDS011;17048;53.092;8.746;2023-07-31T05:26:53;3.53;;;1.85;;
30235;SDS011;17048;53.092;8.746;2023-07-31T05:35:54;3.85;;;1.75;;
30235;SDS011;17048;53.092;8.746;2023-07-31T05:38:45;1.77;;;1.65;;
30235;SDS011;17048;53.092;8.746;2023-07-31T05:45:07;1.90;;;1.40;;
30235;SDS011;17048;53.092;8.746;2023-07-31T05:48:07;2.47;;;1.58;;
30235;SDS011;17048;53.092;8.746;2023-07-31T05:50:48;3.17;;;1.70;;
30235;SDS011;17048;53.092;8.746;2023-07-31T05:59:11;2.58;;;1.45;;
30235;SDS011;17048;53.092;8.746;2023-07-31T06:09:46;1.53;;;1.30;;
30235;SDS011;17048;53.092;8.746;2023-07-31T06:12:45;2.30;;;1.70;;
30235;SDS011;17048;53.092;8.746;2023-07-31T06:20:51;3.72;;;2.08;;
30235;SDS011;17048;53.092;8.746;2023-07-31T06:23:33;2.10;;;1.90;;
30235;SDS011;17048;53.092;8.746;2023-07-31T06:26:34;1.88;;;1.60;;
30235;SDS011;17048;53.092;8.746;2023-07-31T07:06:33;1.20;;;1.10;;
30235;SDS011;17048;53.092;8.746;2023-07-31T07:33:20;2.45;;;1.80;;
30235;SDS011;17048;53.092;8.746;2023-07-31T07:36:03;2.70;;;1.55;;
30235;SDS011;17048;53.092;8.746;2023-07-31T07:39:05;3.63;;;1.85;;
30235;SDS011;17048;53.092;8.746;2023-07-31T07:44:22;4.22;;;2.20;;
30235;SDS011;17048;53.092;8.746;2023-07-31T07:47:10;7.15;;;4.05;;
30235;SDS011;17048;53.092;8.746;2023-07-31T07:49:52;7.43;;;4.28;;
30235;SDS011;17048;53.092;8.746;2023-07-31T07:52:34;9.73;;;4.15;;
30235;SDS011;17048;53.092;8.746;2023-07-31T09:19:55;13.68;;;6.05;;
30235;SDS011;17048;53.092;8.746;2023-07-31T09:42:34;12.25;;;4.47;;
30235;SDS011;17048;53.092;8.746;2023-07-31T09:58:25;6.25;;;3.10;;
30235;SDS011;17048;53.092;8.746;2023-07-31T10:01:57;10.98;;;3.70;;
30235;SDS011;17048;53.092;8.746;2023-07-31T10:04:48;10.82;;;4.07;;
30235;SDS011;17048;53.092;8.746;2023-07-31T10:13:18;6.43;;;2.87;;
30235;SDS011;17048;53.092;8.746;2023-07-31T10:16:28;6.57;;;3.00;;
30235;SDS011;17048;53.092;8.746;2023-07-31T10:28:27;7.75;;;3.10;;
30235;SDS011;17048;53.092;8.746;2023-07-31T10:59:26;2.03;;;1.20;;
30235;SDS011;17048;53.092;8.746;2023-07-31T11:11:24;2.33;;;1.27;;
30235;SDS011;17048;53.092;8.746;2023-07-31T11:14:25;1.48;;;0.75;;
30235;SDS011;17048;53.092;8.746;2023-07-31T11:17:12;1.25;;;0.75;;
30235;SDS011;17048;53.092;8.746;2023-07-31T11:20:18;1.40;;;0.82;;
30235;SDS011;17048;53.092;8.746;2023-07-31T11:23:10;0.85;;;0.60;;
30235;SDS011;17048;53.092;8.746;2023-07-31T11:26:04;1.65;;;0.75;;
30235;SDS011;17048;53.092;8.746;2023-07-31T11:29:12;1.35;;;0.60;;
30235;SDS011;17048;53.092;8.746;2023-07-31T11:32:15;0.68;;;0.50;;
30235;SDS011;17048;53.092;8.746;2023-07-31T11:38:26;0.50;;;0.40;;
30235;SDS011;17048;53.092;8.746;2023-07-31T11:41:16;0.85;;;0.50;;
30235;SDS011;17048;53.092;8.746;2023-07-31T12:00:52;0.30;;;0.30;;
30235;SDS011;17048;53.092;8.746;2023-07-31T12:04:00;0.77;;;0.45;;
30235;SDS011;17048;53.092;8.746;2023-07-31T12:18:14;0.30;;;0.30;;
30235;SDS011;17048;53.092;8.746;2023-07-31T12:21:39;1.17;;;0.50;;
30235;SDS011;17048;53.092;8.746;2023-07-31T12:24:27;0.88;;;0.40;;
30235;SDS011;17048;53.092;8.746;2023-07-31T12:27:15;0.73;;;0.40;;
30235;SDS011;17048;53.092;8.746;2023-07-31T12:30:03;0.55;;;0.50;;
30235;SDS011;17048;53.092;8.746;2023-07-31T12:46:21;1.42;;;0.65;;
30235;SDS011;17048;53.092;8.746;2023-07-31T12:49:26;1.15;;;0.60;;
30235;SDS011;17048;53.092;8.746;2023-07-31T12:55:21;1.20;;;0.70;;
30235;SDS011;17048;53.092;8.746;2023-07-31T12:58:03;1.92;;;0.70;;
30235;SDS011;17048;53.092;8.746;2023-07-31T13:00:56;0.98;;;0.80;;
30235;SDS011;17048;53.092;8.746;2023-07-31T13:03:46;0.63;;;0.57;;
30235;SDS011;17048;53.092;8.746;2023-07-31T13:06:30;0.70;;;0.70;;
30235;SDS011;17048;53.092;8.746;2023-07-31T13:09:19;1.00;;;0.90;;
30235;SDS011;17048;53.092;8.746;2023-07-31T13:12:25;1.20;;;0.98;;
30235;SDS011;17048;53.092;8.746;2023-07-31T13:18:13;5.05;;;1.08;;
30235;SDS011;17048;53.092;8.746;2023-07-31T13:21:00;1.45;;;1.00;;
30235;SDS011;17048;53.092;8.746;2023-07-31T13:23:45;1.20;;;1.08;;
30235;SDS011;17048;53.092;8.746;2023-07-31T13:29:03;1.33;;;1.03;;
30235;SDS011;17048;53.092;8.746;2023-07-31T13:32:02;3.58;;;1.10;;
30235;SDS011;17048;53.092;8.746;2023-07-31T13:35:11;1.60;;;1.08;;
30235;SDS011;17048;53.092;8.746;2023-07-31T13:40:27;2.37;;;1.43;;
30235;SDS011;17048;53.092;8.746;2023-07-31T13:43:16;1.88;;;1.33;;
30235;SDS011;17048;53.092;8.746;2023-07-31T13:46:24;2.53;;;1.92;;
30235;SDS011;17048;53.092;8.746;2023-07-31T14:03:10;3.22;;;2.47;;
30235;SDS011;17048;53.092;8.746;2023-07-31T14:05:51;4.03;;;3.13;;
30235;SDS011;17048;53.092;8.746;2023-07-31T14:14:31;8.02;;;4.40;;
30235;SDS011;17048;53.092;8.746;2023-07-31T14:25:27;5.85;;;4.95;;
30235;SDS011;17048;53.092;8.746;2023-07-31T14:31:07;6.47;;;4.17;;
30235;SDS011;17048;53.092;8.746;2023-07-31T14:34:06;9.43;;;5.25;;
30235;SDS011;17048;53.092;8.746;2023-07-31T14:37:13;5.70;;;4.35;;
30235;SDS011;17048;53.092;8.746;2023-07-31T14:40:04;6.65;;;4.70;;
30235;SDS011;17048;53.092;8.746;2023-07-31T14:42:49;11.20;;;5.27;;
30235;SDS011;17048;53.092;8.746;2023-07-31T14:45:31;10.70;;;5.47;;
30235;SDS011;17048;53.092;8.746;2023-07-31T14:49:01;11.20;;;5.47;;
30235;SDS011;17048;53.092;8.746;2023-07-31T14:51:46;6.68;;;5.05;;
30235;SDS011;17048;53.092;8.746;2023-07-31T14:55:22;6.28;;;5.15;;
30235;SDS011;17048;53.092;8.746;2023-07-31T14:58:24;8.50;;;5.57;;
30235;SDS011;17048;53.092;8.746;2023-07-31T15:01:29;6.38;;;5.18;;
30235;SDS011;17048;53.092;8.746;2023-07-31T15:04:32;8.88;;;5.47;;
30235;SDS011;17048;53.092;8.746;2023-07-31T15:07:33;9.43;;;5.80;;
30235;SDS011;17048;53.092;8.746;2023-07-31T15:10:14;7.45;;;5.25;;
30235;SDS011;17048;53.092;8.746;2023-07-31T15:13:37;11.68;;;6.28;;
30235;SDS011;17048;53.092;8.746;2023-07-31T15:33:52;9.75;;;6.65;;
30235;SDS011;17048;53.092;8.746;2023-07-31T15:36:37;9.82;;;6.60;;
30235;SDS011;17048;53.092;8.746;2023-07-31T15:39:18;8.30;;;5.65;;
30235;SDS011;17048;53.092;8.746;2023-07-31T15:41:59;10.57;;;6.53;;
30235;SDS011;17048;53.092;8.746;2023-07-31T15:50:09;8.03;;;5.80;;
30235;SDS011;17048;53.092;8.746;2023-07-31T15:55:56;8.70;;;6.87;;
30235;SDS011;17048;53.092;8.746;2023-07-31T15:58:40;9.05;;;6.57;;
30235;SDS011;17048;53.092;8.746;2023-07-31T16:20:50;6.30;;;4.40;;
30235;SDS011;17048;53.092;8.746;2023-07-31T16:32:52;4.78;;;3.10;;
30235;SDS011;17048;53.092;8.746;2023-07-31T16:38:18;4.82;;;3.40;;
30235;SDS011;17048;53.092;8.746;2023-07-31T16:41:26;4.00;;;2.78;;
30235;SDS011;17048;53.092;8.746;2023-07-31T16:44:10;6.60;;;2.90;;
30235;SDS011;17048;53.092;8.746;2023-07-31T16:49:45;4.90;;;2.70;;
30235;SDS011;17048;53.092;8.746;2023-07-31T16:52:42;4.55;;;3.28;;
30235;SDS011;17048;53.092;8.746;2023-07-31T16:55:38;3.47;;;3.08;;
30235;SDS011;17048;53.092;8.746;2023-07-31T17:01:27;4.13;;;3.33;;
30235;SDS011;17048;53.092;8.746;2023-07-31T17:04:13;3.88;;;3.03;;
30235;SDS011;17048;53.092;8.746;2023-07-31T17:06:59;6.78;;;4.07;;
30235;SDS011;17048;53.092;8.746;2023-07-31T17:09:43;5.57;;;4.10;;
30235;SDS011;17048;53.092;8.746;2023-07-31T17:12:26;5.80;;;3.90;;
30235;SDS011;17048;53.092;8.746;2023-07-31T17:18:30;7.07;;;3.33;;
30235;SDS011;17048;53.092;8.746;2023-07-31T17:21:13;5.93;;;4.07;;
30235;SDS011;17048;53.092;8.746;2023-07-31T17:24:02;6.35;;;3.95;;
30235;SDS011;17048;53.092;8.746;2023-07-31T17:26:47;6.70;;;3.72;;
30235;SDS011;17048;53.092;8.746;2023-07-31T17:32:31;6.18;;;3.97;;
30235;SDS011;17048;53.092;8.746;2023-07-31T17:35:11;8.00;;;4.75;;
30235;SDS011;17048;53.092;8.746;2023-07-31T17:38:04;6.10;;;3.90;;
30235;SDS011;17048;53.092;8.746;2023-07-31T17:40:45;6.30;;;4.88;;
30235;SDS011;17048;53.092;8.746;2023-07-31T17:43:38;8.18;;;5.13;;
30235;SDS011;17048;53.092;8.746;2023-07-31T17:46:20;8.10;;;5.20;;
30235;SDS011;17048;53.092;8.746;2023-07-31T17:51:39;8.40;;;5.93;;
30235;SDS011;17048;53.092;8.746;2023-07-31T17:54:38;10.45;;;5.30;;
30235;SDS011;17048;53.092;8.746;2023-07-31T17:57:22;12.68;;;5.97;;
30235;SDS011;17048;53.092;8.746;2023-07-31T18:02:35;11.48;;;6.53;;
30235;SDS011;17048;53.092;8.746;2023-07-31T18:34:11;6.88;;;4.38;;
30235;SDS011;17048;53.092;8.746;2023-07-31T18:36:53;8.57;;;4.40;;
30235;SDS011;17048;53.092;8.746;2023-07-31T18:39:36;6.57;;;3.75;;
30235;SDS011;17048;53.092;8.746;2023-07-31T18:42:21;7.00;;;3.58;;
30235;SDS011;17048;53.092;8.746;2023-07-31T18:45:05;4.97;;;3.10;;
30235;SDS011;17048;53.092;8.746;2023-07-31T18:47:58;4.22;;;2.67;;
30235;SDS011;17048;53.092;8.746;2023-07-31T18:50:42;8.38;;;2.33;;
30235;SDS011;17048;53.092;8.746;2023-07-31T18:53:18;2.60;;;1.95;;
30235;SDS011;17048;53.092;8.746;2023-07-31T18:58:35;2.92;;;1.83;;
30235;SDS011;17048;53.092;8.746;2023-07-31T19:12:44;3.03;;;1.80;;
30235;SDS011;17048;53.092;8.746;2023-07-31T19:40:00;6.28;;;3.25;;
30235;SDS011;17048;53.092;8.746;2023-07-31T19:43:06;8.30;;;3.97;;
30235;SDS011;17048;53.092;8.746;2023-07-31T19:54:14;5.68;;;3.42;;
30235;SDS011;17048;53.092;8.746;2023-07-31T20:00:10;8.07;;;4.85;;
30235;SDS011;17048;53.092;8.746;2023-07-31T20:03:21;6.53;;;4.13;;
30235;SDS011;17048;53.092;8.746;2023-07-31T20:06:04;7.15;;;5.35;;
30235;SDS011;17048;53.092;8.746;2023-07-31T20:09:23;9.15;;;4.82;;
30235;SDS011;17048;53.092;8.746;2023-07-31T20:12:25;7.20;;;4.95;;
30235;SDS011;17048;53.092;8.746;2023-07-31T20:15:17;8.30;;;5.45;;
30235;SDS011;17048;53.092;8.746;2023-07-31T20:18:30;9.52;;;5.55;;
30235;SDS011;17048;53.092;8.746;2023-07-31T20:21:24;7.25;;;5.78;;
30235;SDS011;17048;53.092;8.746;2023-07-31T20:24:27;8.98;;;5.85;;
30235;SDS011;17048;53.092;8.746;2023-07-31T20:26:54;8.60;;;6.13;;
30235;SDS011;17048;53.092;8.746;2023-07-31T20:29:23;10.07;;;6.03;;
30235;SDS011;17048;53.092;8.746;2023-07-31T20:31:59;8.48;;;6.50;;
30235;SDS011;17048;53.092;8.746;2023-07-31T20:34:29;7.72;;;6.22;;
30235;SDS011;17048;53.092;8.746;2023-07-31T20:36:56;10.35;;;6.18;;
30235;SDS011;17048;53.092;8.746;2023-07-31T20:39:24;10.27;;;5.97;;
30235;SDS011;17048;53.092;8.746;2023-07-31T20:41:52;8.65;;;6.63;;
30235;SDS011;17048;53.092;8.746;2023-07-31T20:44:23;8.82;;;6.60;;
30235;SDS011;17048;53.092;8.746;2023-07-31T20:46:51;8.63;;;6.43;;
30235;SDS011;17048;53.092;8.746;2023-07-31T20:49:19;8.23;;;6.45;;
30235;SDS011;17048;53.092;8.746;2023-07-31T20:51:49;9.23;;;5.65;;
30235;SDS011;17048;53.092;8.746;2023-07-31T20:54:17;10.25;;;6.00;;
30235;SDS011;17048;53.092;8.746;2023-07-31T20:56:44;9.57;;;6.13;;
30235;SDS011;17048;53.092;8.746;2023-07-31T20:59:20;8.02;;;5.60;;
30235;SDS011;17048;53.092;8.746;2023-07-31T21:01:47;7.97;;;5.57;;
30235;SDS011;17048;53.092;8.746;2023-07-31T21:04:14;8.32;;;5.72;;
30235;SDS011;17048;53.092;8.746;2023-07-31T21:06:42;8.23;;;6.22;;
30235;SDS011;17048;53.092;8.746;2023-07-31T21:09:10;6.97;;;5.60;;
30235;SDS011;17048;53.092;8.746;2023-07-31T21:11:39;8.52;;;5.10;;
30235;SDS011;17048;53.092;8.746;2023-07-31T21:14:06;5.80;;;4.82;;
30235;SDS011;17048;53.092;8.746;2023-07-31T21:16:33;6.82;;;4.90;;
30235;SDS011;17048;53.092;8.746;2023-07-31T21:19:04;6.40;;;4.65;;
30235;SDS011;17048;53.092;8.746;2023-07-31T21:21:35;4.65;;;3.83;;
30235;SDS011;17048;53.092;8.746;2023-07-31T21:24:04;9.13;;;3.53;;
30235;SDS011;17048;53.092;8.746;2023-07-31T21:26:31;4.22;;;3.65;;
30235;SDS011;17048;53.092;8.746;2023-07-31T21:28:58;5.28;;;3.65;;
30235;SDS011;17048;53.092;8.746;2023-07-31T21:31:27;4.00;;;2.88;;
30235;SDS011;17048;53.092;8.746;2023-07-31T21:33:57;5.13;;;2.80;;
30235;SDS011;17048;53.092;8.746;2023-07-31T21:36:24;2.78;;;2.30;;
30235;SDS011;17048;53.092;8.746;2023-07-31T21:38:51;5.97;;;2.20;;
30235;SDS011;17048;53.092;8.746;2023-07-31T21:41:18;2.08;;;1.77;;
30235;SDS011;17048;53.092;8.746;2023-07-31T21:43:52;4.82;;;2.85;;
30235;SDS011;17048;53.092;8.746;2023-07-31T21:46:19;3.40;;;1.80;;
30235;SDS011;17048;53.092;8.746;2023-07-31T21:48:46;2.45;;;1.80;;
30235;SDS011;17048;53.092;8.746;2023-07-31T21:51:15;2.50;;;1.90;;
30235;SDS011;17048;53.092;8.746;2023-07-31T21:53:42;2.83;;;1.95;;
30235;SDS011;17048;53.092;8.746;2023-07-31T21:56:10;2.95;;;1.83;;
30235;SDS011;17048;53.092;8.746;2023-07-31T21:58:36;4.35;;;1.65;;
30235;SDS011;17048;53.092;8.746;2023-07-31T22:01:06;2.75;;;1.80;;
30235;SDS011;17048;53.092;8.746;2023-07-31T22:03:33;3.80;;;2.03;;
30235;SDS011;17048;53.092;8.746;2023-07-31T22:06:00;2.15;;;1.90;;
30235;SDS011;17048;53.092;8.746;2023-07-31T22:08:27;4.15;;;1.98;;
30235;SDS011;17048;53.092;8.746;2023-07-31T22:10:54;2.90;;;2.10;;
30235;SDS011;17048;53.092;8.746;2023-07-31T22:13:21;3.95;;;2.30;;
30235;SDS011;17048;53.092;8.746;2023-07-31T22:15:55;4.53;;;2.35;;
30235;SDS011;17048;53.092;8.746;2023-07-31T22:18:25;6.57;;;2.20;;
30235;SDS011;17048;53.092;8.746;2023-07-31T22:20:55;3.05;;;1.73;;
30235;SDS011;17048;53.092;8.746;2023-07-31T22:23:22;3.70;;;1.70;;
30235;SDS011;17048;53.092;8.746;2023-07-31T22:25:52;2.05;;;1.63;;
30235;SDS011;17048;53.092;8.746;2023-07-31T22:28:19;2.92;;;1.83;;
30235;SDS011;17048;53.092;8.746;2023-07-31T22:30:47;2.33;;;1.98;;
30235;SDS011;17048;53.092;8.746;2023-07-31T22:33:17;2.28;;;1.65;;
30235;SDS011;17048;53.092;8.746;2023-07-31T22:35:44;2.88;;;1.67;;
30235;SDS011;17048;53.092;8.746;2023-07-31T22:38:13;3.45;;;1.73;;
30235;SDS011;17048;53.092;8.746;2023-07-31T22:40:43;2.40;;;1.73;;
30235;SDS011;17048;53.092;8.746;2023-07-31T22:43:10;1.95;;;1.83;;
30235;SDS011;17048;53.092;8.746;2023-07-31T22:45:38;3.65;;;2.75;;
30235;SDS011;17048;53.092;8.746;2023-07-31T22:48:05;3.83;;;2.40;;
30235;SDS011;17048;53.092;8.746;2023-07-31T22:50:32;4.45;;;3.17;;
30235;SDS011;17048;53.092;8.746;2023-07-31T22:52:59;4.70;;;3.13;;
30235;SDS011;17048;53.092;8.746;2023-07-31T22:55:31;3.80;;;3.00;;
30235;SDS011;17048;53.092;8.746;2023-07-31T22:58:00;6.25;;;3.05;;
30235;SDS011;17048;53.092;8.746;2023-07-31T23:00:28;4.85;;;3.10;;
30235;SDS011;17048;53.092;8.746;2023-07-31T23:02:56;6.10;;;3.53;;
30235;SDS011;17048;53.092;8.746;2023-07-31T23:05:23;4.70;;;3.65;;
30235;SDS011;17048;53.092;8.746;2023-07-31T23:07:50;8.10;;;3.92;;
30235;SDS011;17048;53.092;8.746;2023-07-31T23:10:17;5.80;;;3.95;;
30235;SDS011;17048;53.092;8.746;2023-07-31T23:12:45;5.88;;;4.22;;
30235;SDS011;17048;53.092;8.746;2023-07-31T23:15:12;5.18;;;4.15;;
30235;SDS011;17048;53.092;8.746;2023-07-31T23:17:40;6.45;;;4.60;;
30235;SDS011;17048;53.092;8.746;2023-07-31T23:20:07;5.68;;;4.30;;
30235;SDS011;17048;53.092;8.746;2023-07-31T23:32:43;10.07;;;5.30;;
30235;SDS011;17048;53.092;8.746;2023-07-31T23:35:10;6.22;;;4.90;;
30235;SDS011;17048;53.092;8.746;2023-07-31T23:37:39;8.05;;;5.22;;
30235;SDS011;17048;53.092;8.746;2023-07-31T23:40:07;6.80;;;5.03;;
30235;SDS011;17048;53.092;8.746;2023-07-31T23:42:34;7.88;;;5.75;;
30235;SDS011;17048;53.092;8.746;2023-07-31T23:45:00;10.13;;;5.60;;
30235;SDS011;17048;53.092;8.746;2023-07-31T23:47:37;7.55;;;5.65;;
30235;SDS011;17048;53.092;8.746;2023-07-31T23:50:05;8.25;;;6.20;;
